ノヴォシビルスク の空港の天気 - METARとTAF

トルマチェヴォ空港(ノヴォシビルスク) ( UNNT / OVB ) - ロシア ノヴォシビルスク
飛行場実況気象(Metar)
観測時間02/06 02:00 OMST (02/05 20:00 UTC)
風向・風速西南西 2m/s
視程9000m
天気現象
なし
気温-20℃
湿度77%
気圧1027hPa
METARUNNT 052000Z 24002MPS 9000 NSC M20/M23 Q1027 R07/820250 R34/////// NOSIG RMK QFE760/1014
過去の天気等 Google飛行場航空写真 Wunderground天気予報

過去48時間のMETAR

飛行場予報(TAF)
発表時間: 2/05 23:00 OMST (2/05 17:00 UTC)
予報対象時間: 6日0時 OMST ~ 7日0時 OMST
風向・風速北北東 3m/s
視程4000m
天気現象もや 煙
なし
6日0時 OMST ~ 6日11時 OMST に一時的に
視程150m
天気現象氷霧 煙
全天の8割程度の雲 雲底高度 30m
6日11時 OMST ~ 6日14時 OMST に徐々に
視程8000m
天気現象運行に影響にある天気現象が終了
全天の8割程度の積乱雲 雲底高度 1220m
6日16時 OMST ~ 6日24時 OMST に一時的に
視程3000m
天気現象弱いしゅう雪
全天の8割程度の積乱雲 雲底高度 490m
TAF UNNT 051700Z 0518/0618 02003MPS 4000 BR FU NSC
TEMPO 0518/0605 0150 FZFG FU BKN001
BECMG 0605/0608 8000 NSW BKN040CB
TEMPO 0610/0618 3000 -SHSN BKN016CB